createdAt,value
2017-05-02T00:00:55.851Z,1017.960
2017-05-02T00:03:50.202Z,1017.938
2017-05-02T00:06:44.737Z,1017.931
2017-05-02T00:09:39.204Z,1017.972
2017-05-02T00:12:33.678Z,1017.986
2017-05-02T00:15:28.254Z,1018.006
2017-05-02T00:18:22.703Z,1018.019
2017-05-02T00:21:17.158Z,1017.969
2017-05-02T00:24:11.571Z,1017.929
2017-05-02T00:27:06.071Z,1017.887
2017-05-02T00:30:00.533Z,1017.924
2017-05-02T00:32:54.935Z,1017.990
2017-05-02T00:35:49.401Z,1018.030
2017-05-02T00:38:43.746Z,1018.038
2017-05-02T00:41:38.439Z,1018.002
2017-05-02T00:44:33.055Z,1018.020
2017-05-02T00:50:21.875Z,1018.009
2017-05-02T00:53:16.364Z,1018.048
2017-05-02T00:56:10.927Z,1018.042
2017-05-02T00:59:05.163Z,1017.997
2017-05-02T01:01:59.567Z,1018.003
2017-05-02T01:04:54.058Z,1017.982
2017-05-02T01:07:48.450Z,1017.952
2017-05-02T01:10:42.862Z,1017.996
2017-05-02T01:13:37.329Z,1017.975
2017-05-02T01:16:31.899Z,1018.003
2017-05-02T01:19:26.324Z,1017.957
2017-05-02T01:22:20.617Z,1018.027
2017-05-02T01:28:09.377Z,1018.019
2017-05-02T01:31:03.831Z,1018.050
2017-05-02T01:33:58.245Z,1017.996
2017-05-02T01:36:52.715Z,1018.089
2017-05-02T01:39:47.317Z,1018.044
2017-05-02T01:42:41.666Z,1018.045
2017-05-02T01:45:36.082Z,1018.106
2017-05-02T01:48:30.389Z,1018.175
2017-05-02T01:51:24.729Z,1018.141
2017-05-02T01:54:19.144Z,1018.136
2017-05-02T01:57:13.417Z,1018.123
2017-05-02T02:00:07.753Z,1018.101
2017-05-02T02:03:02.471Z,1018.015
2017-05-02T02:05:56.833Z,1018.028
2017-05-02T02:08:51.258Z,1018.029
2017-05-02T02:14:39.843Z,1018.032
2017-05-02T02:20:28.452Z,1018.044
2017-05-02T02:23:22.820Z,1018.031
2017-05-02T02:26:17.248Z,1018.021
2017-05-02T02:29:11.614Z,1018.019
2017-05-02T02:32:05.910Z,1017.955
2017-05-02T02:35:00.213Z,1017.828
2017-05-02T02:37:54.552Z,1017.908
2017-05-02T02:43:43.098Z,1017.928
2017-05-02T02:46:37.411Z,1017.910
2017-05-02T02:49:31.752Z,1017.914
2017-05-02T02:52:26.040Z,1017.879
2017-05-02T02:55:20.372Z,1017.843
2017-05-02T02:58:14.667Z,1017.806
2017-05-02T03:01:09.018Z,1017.864
2017-05-02T03:06:57.638Z,1017.938
2017-05-02T03:09:52.113Z,1017.929
2017-05-02T03:12:46.497Z,1017.940
2017-05-02T03:15:40.983Z,1017.920
2017-05-02T03:21:29.635Z,1017.926
2017-05-02T03:24:23.894Z,1017.910
2017-05-02T03:27:18.220Z,1017.900
2017-05-02T03:30:12.525Z,1017.856
2017-05-02T03:33:06.787Z,1017.835
2017-05-02T03:36:01.223Z,1017.877
2017-05-02T03:38:55.564Z,1017.803
2017-05-02T03:41:49.862Z,1017.827
2017-05-02T03:44:44.199Z,1017.852
2017-05-02T03:47:38.450Z,1017.900
2017-05-02T03:50:32.899Z,1017.891
2017-05-02T03:53:27.401Z,1017.905
2017-05-02T03:56:21.697Z,1017.911
2017-05-02T03:59:16.010Z,1017.936
2017-05-02T04:02:10.231Z,1017.915
2017-05-02T04:05:04.626Z,1017.812
2017-05-02T04:10:53.114Z,1017.783
2017-05-02T04:16:41.651Z,1017.806
2017-05-02T04:19:36.075Z,1017.831
2017-05-02T04:22:30.338Z,1017.841
2017-05-02T04:25:24.620Z,1017.843
2017-05-02T04:28:18.903Z,1017.939
2017-05-02T04:31:13.135Z,1017.910
2017-05-02T04:34:07.419Z,1017.904
2017-05-02T04:37:01.638Z,1017.885
2017-05-02T04:42:50.246Z,1017.928
2017-05-02T04:45:44.440Z,1017.934
2017-05-02T04:48:38.671Z,1017.931
2017-05-02T04:51:32.950Z,1017.904
2017-05-02T04:57:21.445Z,1017.904
2017-05-02T05:00:15.685Z,1017.905
2017-05-02T05:03:09.898Z,1017.905
2017-05-02T05:06:04.087Z,1017.898
2017-05-02T05:08:58.401Z,1017.924
2017-05-02T05:11:52.821Z,1017.904
2017-05-02T05:14:47.061Z,1017.858
2017-05-02T05:17:41.393Z,1017.936
2017-05-02T05:20:35.646Z,1017.877
2017-05-02T05:23:30.400Z,1017.900
2017-05-02T05:26:24.789Z,1017.878
2017-05-02T05:29:19.152Z,1017.865
2017-05-02T05:32:13.430Z,1017.853
2017-05-02T05:35:07.717Z,1017.836
2017-05-02T05:38:02.042Z,1017.879
2017-05-02T05:40:56.280Z,1017.873
2017-05-02T05:43:50.574Z,1017.832
2017-05-02T05:46:44.856Z,1017.817
2017-05-02T05:49:39.175Z,1017.821
2017-05-02T05:58:22.040Z,1017.667
2017-05-02T06:01:16.391Z,1017.600
2017-05-02T06:04:10.838Z,1017.630
2017-05-02T06:07:05.107Z,1017.612
2017-05-02T06:09:59.702Z,1017.515
2017-05-02T06:12:54.187Z,1017.506
2017-05-02T06:15:48.479Z,1017.448
2017-05-02T06:21:37.456Z,1017.438
2017-05-02T06:24:32.034Z,1017.393
2017-05-02T06:27:26.597Z,1017.321
2017-05-02T06:30:21.072Z,1017.298
2017-05-02T06:33:15.510Z,1017.305
2017-05-02T06:36:10.050Z,1017.264
2017-05-02T06:39:04.391Z,1017.315
2017-05-02T06:41:58.931Z,1017.394
2017-05-02T06:44:53.533Z,1017.426
2017-05-02T06:47:47.851Z,1017.409
2017-05-02T06:50:42.334Z,1017.415
2017-05-02T06:53:36.807Z,1017.478
2017-05-02T06:56:31.258Z,1017.441
2017-05-02T06:59:25.706Z,1017.463
2017-05-02T07:02:20.014Z,1017.526
2017-05-02T07:05:14.382Z,1017.513
2017-05-02T07:08:08.752Z,1017.577
2017-05-02T07:13:57.648Z,1017.670
2017-05-02T07:16:52.095Z,1017.764
2017-05-02T07:19:46.495Z,1017.912
2017-05-02T07:22:40.835Z,1017.913
2017-05-02T07:25:35.109Z,1017.842
2017-05-02T07:28:29.460Z,1017.731
2017-05-02T07:31:23.894Z,1017.794
2017-05-02T07:34:18.381Z,1017.859
2017-05-02T07:37:12.773Z,1017.855
2017-05-02T07:40:07.145Z,1017.812
2017-05-02T07:43:01.544Z,1017.908
2017-05-02T07:45:56.015Z,1017.932
2017-05-02T07:48:50.310Z,1017.851
2017-05-02T07:51:44.719Z,1017.903
2017-05-02T07:54:39.202Z,1017.862
2017-05-02T07:57:33.592Z,1017.805
2017-05-02T08:00:27.990Z,1017.676
2017-05-02T08:03:22.263Z,1017.686
2017-05-02T08:06:16.647Z,1017.631
2017-05-02T08:09:10.998Z,1017.796
2017-05-02T08:12:05.394Z,1017.871
2017-05-02T08:14:59.814Z,1017.780
2017-05-02T08:17:54.270Z,1017.778
2017-05-02T08:20:48.616Z,1017.759
2017-05-02T08:23:43.063Z,1017.613
2017-05-02T08:26:37.494Z,1017.672
2017-05-02T08:29:31.965Z,1017.677
2017-05-02T08:32:26.444Z,1017.727
2017-05-02T08:35:20.810Z,1017.760
2017-05-02T08:38:15.283Z,1017.812
2017-05-02T08:41:09.706Z,1017.816
2017-05-02T08:44:04.200Z,1017.844
2017-05-02T08:46:58.646Z,1017.857
2017-05-02T08:49:53.226Z,1017.877
2017-05-02T08:52:47.730Z,1018.068
2017-05-02T08:55:42.102Z,1018.098
2017-05-02T08:58:36.540Z,1018.158
2017-05-02T09:01:30.949Z,1018.209
2017-05-02T09:04:25.384Z,1018.118
2017-05-02T09:07:19.717Z,1018.150
2017-05-02T09:10:14.194Z,1018.177
2017-05-02T09:13:08.637Z,1018.206
2017-05-02T09:16:02.925Z,1018.203
2017-05-02T09:18:57.375Z,1018.192
2017-05-02T09:21:51.797Z,1018.191
2017-05-02T09:24:46.169Z,1018.156
2017-05-02T09:27:40.600Z,1018.181
2017-05-02T09:30:35.027Z,1018.123
2017-05-02T09:33:29.496Z,1018.137
2017-05-02T09:39:18.321Z,1018.125
2017-05-02T09:42:12.798Z,1018.152
2017-05-02T09:45:07.216Z,1018.231
2017-05-02T09:50:56.150Z,1018.168
2017-05-02T09:53:50.478Z,1018.115
2017-05-02T09:56:44.870Z,1018.066
2017-05-02T09:59:39.325Z,1018.104
2017-05-02T10:02:33.655Z,1018.078
2017-05-02T10:05:27.915Z,1018.135
2017-05-02T10:08:22.340Z,1018.047
2017-05-02T10:11:16.733Z,1018.044
2017-05-02T10:14:11.106Z,1017.999
2017-05-02T10:17:05.495Z,1018.040
2017-05-02T10:19:59.838Z,1018.056
2017-05-02T10:22:54.166Z,1017.935
2017-05-02T10:28:42.921Z,1017.878
2017-05-02T10:31:37.288Z,1017.887
2017-05-02T10:34:31.700Z,1017.828
2017-05-02T10:37:26.098Z,1017.832
2017-05-02T10:40:20.546Z,1017.817
2017-05-02T10:43:14.859Z,1017.859
2017-05-02T10:46:09.391Z,1017.779
2017-05-02T10:49:03.769Z,1017.838
2017-05-02T10:51:58.357Z,1017.815
2017-05-02T10:54:52.791Z,1017.743
2017-05-02T10:57:47.233Z,1017.865
2017-05-02T11:00:41.736Z,1017.963
2017-05-02T11:03:36.196Z,1017.967
2017-05-02T11:06:30.705Z,1018.029
2017-05-02T11:09:25.139Z,1017.946
2017-05-02T11:12:19.395Z,1017.950
2017-05-02T11:15:13.830Z,1017.991
2017-05-02T11:18:08.416Z,1018.012
2017-05-02T11:21:02.857Z,1018.086
2017-05-02T11:23:57.222Z,1018.118
2017-05-02T11:26:51.659Z,1018.098
2017-05-02T11:29:46.116Z,1018.051
2017-05-02T11:32:40.373Z,1018.012
2017-05-02T11:35:34.781Z,1018.064
2017-05-02T11:38:29.169Z,1018.021
2017-05-02T11:41:23.593Z,1018.149
2017-05-02T11:44:17.980Z,1018.084
2017-05-02T11:47:12.315Z,1018.206
2017-05-02T11:50:06.617Z,1018.241
2017-05-02T11:53:00.997Z,1018.406
2017-05-02T11:55:55.482Z,1018.488
2017-05-02T11:58:49.795Z,1018.463
2017-05-02T12:01:44.179Z,1018.499
2017-05-02T12:04:38.467Z,1018.515
2017-05-02T12:07:32.676Z,1018.486
2017-05-02T12:10:27.044Z,1018.384
2017-05-02T12:13:21.278Z,1018.410
2017-05-02T12:16:15.588Z,1018.495
2017-05-02T12:19:09.959Z,1018.458
2017-05-02T12:22:04.353Z,1018.285
2017-05-02T12:24:58.537Z,1018.444
2017-05-02T12:30:47.345Z,1018.386
2017-05-02T12:33:42.212Z,1018.370
2017-05-02T12:36:36.532Z,1018.375
2017-05-02T12:39:31.295Z,1018.358
2017-05-02T12:42:25.681Z,1018.358
2017-05-02T12:45:20.068Z,1018.415
2017-05-02T12:48:14.351Z,1018.537
2017-05-02T12:51:08.710Z,1018.539
2017-05-02T12:54:03.089Z,1018.605
2017-05-02T12:56:57.437Z,1018.613
2017-05-02T12:59:51.687Z,1018.647
2017-05-02T13:02:46.022Z,1018.657
2017-05-02T13:05:40.389Z,1018.640
2017-05-02T13:08:34.803Z,1018.658
2017-05-02T13:11:29.054Z,1018.727
2017-05-02T13:14:23.355Z,1018.760
2017-05-02T13:17:17.680Z,1018.777
2017-05-02T13:20:12.020Z,1018.829
2017-05-02T13:23:06.314Z,1018.890
2017-05-02T13:26:00.531Z,1018.893
2017-05-02T13:31:49.364Z,1018.944
2017-05-02T13:34:43.744Z,1018.929
2017-05-02T13:37:38.110Z,1018.881
2017-05-02T13:40:32.342Z,1018.926
2017-05-02T13:43:26.684Z,1018.908
2017-05-02T13:46:21.102Z,1018.881
2017-05-02T13:49:15.463Z,1018.955
2017-05-02T13:52:09.631Z,1018.929
2017-05-02T13:55:03.991Z,1018.957
2017-05-02T13:57:58.208Z,1018.930
2017-05-02T14:00:52.574Z,1018.959
2017-05-02T14:03:46.928Z,1018.961
2017-05-02T14:06:41.422Z,1018.952
2017-05-02T14:09:35.749Z,1018.982
2017-05-02T14:12:30.113Z,1019.031
2017-05-02T14:15:24.504Z,1019.003
2017-05-02T14:18:19.138Z,1019.031
2017-05-02T14:21:13.420Z,1019.135
2017-05-02T14:24:07.799Z,1019.172
2017-05-02T14:27:02.188Z,1019.182
2017-05-02T14:29:56.412Z,1019.118
2017-05-02T14:32:50.766Z,1019.088
2017-05-02T14:35:45.108Z,1019.122
2017-05-02T14:38:39.379Z,1019.109
2017-05-02T14:41:33.636Z,1019.060
2017-05-02T14:44:28.012Z,1019.148
2017-05-02T14:47:22.272Z,1019.162
2017-05-02T14:50:16.739Z,1019.201
2017-05-02T14:53:11.038Z,1019.192
2017-05-02T14:56:05.402Z,1019.187
2017-05-02T14:58:59.706Z,1019.156
2017-05-02T15:01:54.043Z,1019.168
2017-05-02T15:04:48.442Z,1019.200
2017-05-02T15:07:42.692Z,1019.168
2017-05-02T15:10:37.038Z,1019.167
2017-05-02T15:13:31.394Z,1019.140
2017-05-02T15:16:25.746Z,1019.168
2017-05-02T15:19:20.057Z,1019.198
2017-05-02T15:22:14.375Z,1019.250
2017-05-02T15:25:08.617Z,1019.231
2017-05-02T15:28:02.864Z,1019.235
2017-05-02T15:30:57.214Z,1019.211
2017-05-02T15:33:51.696Z,1019.199
2017-05-02T15:36:46.176Z,1019.110
2017-05-02T15:39:40.404Z,1018.926
2017-05-02T15:42:34.753Z,1018.919
2017-05-02T15:45:29.182Z,1018.986
2017-05-02T15:48:23.675Z,1018.990
2017-05-02T15:51:18.217Z,1018.989
2017-05-02T15:54:12.588Z,1018.931
2017-05-02T15:57:07.010Z,1018.916
2017-05-02T16:00:01.489Z,1018.902
2017-05-02T16:02:55.996Z,1018.963
2017-05-02T16:05:50.482Z,1018.956
2017-05-02T16:11:39.063Z,1019.004
2017-05-02T16:17:27.868Z,1018.972
2017-05-02T16:20:22.204Z,1018.946
2017-05-02T16:26:10.961Z,1018.948
2017-05-02T16:29:05.280Z,1018.998
2017-05-02T16:31:59.619Z,1018.998
2017-05-02T16:34:53.876Z,1018.939
2017-05-02T16:37:48.263Z,1018.894
2017-05-02T16:43:37.014Z,1018.841
2017-05-02T16:46:31.383Z,1018.796
2017-05-02T16:49:25.812Z,1018.857
2017-05-02T16:52:20.129Z,1018.839
2017-05-02T16:55:14.489Z,1018.828
2017-05-02T16:58:08.877Z,1018.915
2017-05-02T17:01:03.212Z,1018.979
2017-05-02T17:03:57.645Z,1018.932
2017-05-02T17:06:52.041Z,1018.959
2017-05-02T17:09:46.384Z,1018.963
2017-05-02T17:12:40.674Z,1019.008
2017-05-02T17:15:35.021Z,1019.075
2017-05-02T17:18:29.421Z,1019.046
2017-05-02T17:21:23.700Z,1019.002
2017-05-02T17:24:17.999Z,1019.010
2017-05-02T17:27:12.274Z,1018.993
2017-05-02T17:30:06.620Z,1019.011
2017-05-02T17:33:01.048Z,1019.017
2017-05-02T17:35:55.280Z,1019.066
2017-05-02T17:44:38.409Z,1019.072
2017-05-02T17:47:32.889Z,1019.132
2017-05-02T17:50:27.154Z,1019.119
2017-05-02T17:53:21.474Z,1019.129
2017-05-02T17:56:15.737Z,1019.094
2017-05-02T17:59:10.108Z,1019.089
2017-05-02T18:02:04.474Z,1019.112
2017-05-02T18:04:58.951Z,1019.177
2017-05-02T18:07:53.229Z,1019.244
2017-05-02T18:10:47.601Z,1019.302
2017-05-02T18:13:42.215Z,1019.339
2017-05-02T18:16:36.564Z,1019.264
2017-05-02T18:22:25.034Z,1019.381
2017-05-02T18:25:19.320Z,1019.370
2017-05-02T18:28:13.641Z,1019.404
2017-05-02T18:31:07.911Z,1019.441
2017-05-02T18:34:02.304Z,1019.429
2017-05-02T18:36:56.565Z,1019.457
2017-05-02T18:39:50.797Z,1019.517
2017-05-02T18:42:45.018Z,1019.541
2017-05-02T18:45:39.488Z,1019.653
2017-05-02T18:48:33.886Z,1019.669
2017-05-02T18:51:28.137Z,1019.684
2017-05-02T18:54:22.469Z,1019.672
2017-05-02T18:57:16.785Z,1019.716
2017-05-02T19:00:11.113Z,1019.779
2017-05-02T19:03:05.498Z,1019.823
2017-05-02T19:05:59.841Z,1019.880
2017-05-02T19:08:54.156Z,1019.985
2017-05-02T19:11:48.471Z,1020.030
2017-05-02T19:14:42.798Z,1020.005
2017-05-02T19:17:37.180Z,1020.033
2017-05-02T19:20:31.479Z,1020.103
2017-05-02T19:23:25.958Z,1020.134
2017-05-02T19:26:20.059Z,1020.166
2017-05-02T19:29:14.297Z,1020.178
2017-05-02T19:32:08.624Z,1020.181
2017-05-02T19:35:02.835Z,1020.145
2017-05-02T19:37:57.174Z,1020.115
2017-05-02T19:40:51.485Z,1020.116
2017-05-02T19:46:40.171Z,1020.214
2017-05-02T19:49:34.396Z,1020.261
2017-05-02T19:52:28.762Z,1020.307
2017-05-02T19:55:23.023Z,1020.383
2017-05-02T19:58:17.298Z,1020.397
2017-05-02T20:01:11.611Z,1020.472
2017-05-02T20:04:05.932Z,1020.425
2017-05-02T20:07:00.785Z,1020.519
2017-05-02T20:12:49.320Z,1020.472
2017-05-02T20:15:43.605Z,1020.488
2017-05-02T20:18:37.937Z,1020.513
2017-05-02T20:21:32.313Z,1020.516
2017-05-02T20:24:26.607Z,1020.549
2017-05-02T20:27:20.990Z,1020.674
2017-05-02T20:30:15.230Z,1020.691
2017-05-02T20:33:09.518Z,1020.716
2017-05-02T20:36:03.784Z,1020.763
2017-05-02T20:38:58.044Z,1020.798
2017-05-02T20:41:52.300Z,1020.804
2017-05-02T20:44:46.624Z,1020.825
2017-05-02T20:47:40.926Z,1020.926
2017-05-02T20:50:35.302Z,1020.857
2017-05-02T20:53:29.631Z,1020.929
2017-05-02T20:56:23.993Z,1020.927
2017-05-02T20:59:18.273Z,1020.985
2017-05-02T21:02:12.613Z,1021.064
2017-05-02T21:05:06.822Z,1021.105
2017-05-02T21:08:01.076Z,1021.162
2017-05-02T21:10:55.425Z,1021.191
2017-05-02T21:13:49.678Z,1021.230
2017-05-02T21:19:38.378Z,1021.240
2017-05-02T21:22:32.679Z,1021.272
2017-05-02T21:25:26.961Z,1021.250
2017-05-02T21:28:21.326Z,1021.304
2017-05-02T21:31:15.560Z,1021.332
2017-05-02T21:34:09.874Z,1021.385
2017-05-02T21:37:04.190Z,1021.482
2017-05-02T21:39:58.628Z,1021.491
2017-05-02T21:45:47.121Z,1021.557
2017-05-02T21:48:41.484Z,1021.615
2017-05-02T21:51:36.043Z,1021.657
2017-05-02T21:54:30.359Z,1021.667
2017-05-02T21:57:24.675Z,1021.660
2017-05-02T22:03:13.263Z,1021.570
2017-05-02T22:06:07.622Z,1021.627
2017-05-02T22:09:01.932Z,1021.573
2017-05-02T22:11:56.233Z,1021.554
2017-05-02T22:14:50.536Z,1021.553
2017-05-02T22:17:44.754Z,1021.561
2017-05-02T22:20:38.932Z,1021.555
2017-05-02T22:29:21.956Z,1021.527
2017-05-02T22:32:16.230Z,1021.512
2017-05-02T22:35:10.546Z,1021.504
2017-05-02T22:38:04.899Z,1021.481
2017-05-02T22:40:59.082Z,1021.497
2017-05-02T22:43:53.275Z,1021.430
2017-05-02T22:46:47.546Z,1021.372
2017-05-02T22:49:41.803Z,1021.450
2017-05-02T22:52:36.000Z,1021.477
2017-05-02T22:55:30.327Z,1021.455
2017-05-02T22:58:24.657Z,1021.516
2017-05-02T23:01:18.996Z,1021.556
2017-05-02T23:04:13.346Z,1021.590
2017-05-02T23:07:07.617Z,1021.596
2017-05-02T23:10:01.828Z,1021.634
2017-05-02T23:18:45.090Z,1021.708
2017-05-02T23:21:39.481Z,1021.680
2017-05-02T23:24:33.874Z,1021.636
2017-05-02T23:27:28.109Z,1021.615
2017-05-02T23:30:22.445Z,1021.565
2017-05-02T23:33:16.856Z,1021.630
2017-05-02T23:36:11.577Z,1021.616
2017-05-02T23:39:05.816Z,1021.641
2017-05-02T23:42:00.196Z,1021.662
2017-05-02T23:44:54.482Z,1021.711
2017-05-02T23:47:48.832Z,1021.714
2017-05-02T23:50:43.118Z,1021.725
2017-05-02T23:53:37.350Z,1021.728
2017-05-02T23:56:31.691Z,1021.772
2017-05-02T23:59:26.025Z,1021.793
